createdAt,value
2022-12-09T00:00:45.665Z,1.00
2022-12-09T00:03:23.485Z,1.00
2022-12-09T00:05:51.018Z,1.00
2022-12-09T00:08:18.895Z,1.00
2022-12-09T00:10:53.108Z,1.00
2022-12-09T00:13:20.271Z,1.00
2022-12-09T00:15:47.566Z,1.00
2022-12-09T00:18:20.999Z,1.00
2022-12-09T00:20:48.166Z,1.00
2022-12-09T00:23:15.270Z,1.00
2022-12-09T00:25:48.891Z,1.00
2022-12-09T00:28:15.869Z,1.00
2022-12-09T00:30:42.892Z,1.00
2022-12-09T00:33:16.011Z,1.00
2022-12-09T00:35:43.184Z,1.00
2022-12-09T00:38:10.464Z,1.00
2022-12-09T00:40:44.934Z,1.00
2022-12-09T00:43:13.449Z,1.00
2022-12-09T00:45:40.726Z,1.00
2022-12-09T00:48:13.911Z,1.00
2022-12-09T00:50:48.426Z,1.00
2022-12-09T00:53:22.979Z,1.00
2022-12-09T00:55:50.039Z,1.00
2022-12-09T00:58:17.645Z,1.00
2022-12-09T01:00:51.233Z,1.00
2022-12-09T01:03:18.833Z,1.00
2022-12-09T01:05:46.621Z,1.00
2022-12-09T01:08:21.135Z,1.00
2022-12-09T01:10:48.787Z,1.00
2022-12-09T01:13:17.448Z,1.00
2022-12-09T01:15:51.022Z,1.00
2022-12-09T01:18:18.174Z,1.00
2022-12-09T01:20:45.578Z,1.00
2022-12-09T01:23:19.042Z,1.00
2022-12-09T01:25:46.057Z,1.00
2022-12-09T01:28:13.093Z,1.00
2022-12-09T01:30:48.287Z,1.00
2022-12-09T01:33:15.755Z,1.00
2022-12-09T01:35:42.803Z,1.00
2022-12-09T01:38:15.990Z,1.00
2022-12-09T01:40:47.106Z,1.00
2022-12-09T01:43:26.211Z,1.00
2022-12-09T01:45:53.687Z,1.00
2022-12-09T01:48:42.954Z,1.00
2022-12-09T01:51:14.456Z,1.00
2022-12-09T01:53:52.287Z,1.00
2022-12-09T01:56:30.928Z,1.00
2022-12-09T01:59:13.986Z,1.00
2022-12-09T02:01:46.396Z,1.00
2022-12-09T02:04:13.688Z,1.00
2022-12-09T02:06:48.299Z,1.00
2022-12-09T02:09:15.486Z,1.00
2022-12-09T02:12:31.979Z,1.00
2022-12-09T02:15:06.689Z,1.00
2022-12-09T02:17:50.975Z,1.00
2022-12-09T02:20:45.615Z,1.00
2022-12-09T02:23:45.967Z,1.00
2022-12-09T02:26:45.768Z,1.00
2022-12-09T02:29:58.010Z,1.00
2022-12-09T02:33:08.715Z,1.00
2022-12-09T02:35:59.956Z,1.00
2022-12-09T02:38:33.441Z,99.90
2022-12-09T02:41:32.919Z,99.90
2022-12-09T02:44:15.895Z,99.90
2022-12-09T02:46:51.801Z,99.90
2022-12-09T02:49:30.241Z,99.90
2022-12-09T02:52:04.986Z,99.90
2022-12-09T02:54:37.196Z,99.90
2022-12-09T02:57:22.917Z,99.90
2022-12-09T02:59:50.054Z,99.90
2022-12-09T03:02:50.431Z,99.90
2022-12-09T03:05:47.975Z,99.90
2022-12-09T03:08:26.979Z,99.90
2022-12-09T03:10:57.922Z,99.90
2022-12-09T03:14:02.934Z,99.90
2022-12-09T03:16:39.709Z,99.90
2022-12-09T03:19:42.966Z,99.90
2022-12-09T03:22:15.952Z,99.90
2022-12-09T03:25:12.302Z,99.90
2022-12-09T03:27:55.982Z,99.90
2022-12-09T03:30:30.206Z,99.90
2022-12-09T03:32:58.819Z,99.90
2022-12-09T03:35:42.341Z,99.90
2022-12-09T03:38:16.408Z,99.90
2022-12-09T03:40:52.007Z,99.90
2022-12-09T03:43:27.591Z,99.90
2022-12-09T03:46:04.404Z,99.90
2022-12-09T03:48:39.067Z,99.90
2022-12-09T03:51:30.189Z,99.90
2022-12-09T03:54:15.169Z,99.90
2022-12-09T03:56:56.292Z,99.90
2022-12-09T03:59:28.701Z,99.90
2022-12-09T04:02:03.473Z,99.90
2022-12-09T04:04:30.706Z,99.90
2022-12-09T04:06:58.133Z,99.90
2022-12-09T04:09:32.460Z,99.90
2022-12-09T04:11:59.772Z,99.90
2022-12-09T04:14:27.153Z,99.90
2022-12-09T04:17:01.217Z,99.90
2022-12-09T04:19:28.376Z,99.90
2022-12-09T04:21:55.394Z,99.90
2022-12-09T04:24:29.035Z,99.90
2022-12-09T04:26:56.008Z,99.90
2022-12-09T04:29:23.102Z,99.90
2022-12-09T04:31:57.162Z,99.90
2022-12-09T04:34:24.558Z,99.90
2022-12-09T04:36:51.559Z,99.90
2022-12-09T04:39:25.975Z,99.90
2022-12-09T04:41:53.122Z,99.90
2022-12-09T04:44:20.707Z,99.90
2022-12-09T04:46:54.161Z,99.90
2022-12-09T04:49:41.021Z,99.90
2022-12-09T04:52:14.984Z,99.90
2022-12-09T04:54:42.315Z,99.90
2022-12-09T04:57:09.799Z,99.90
2022-12-09T04:59:42.920Z,99.90
2022-12-09T05:02:10.051Z,99.90
2022-12-09T05:04:37.749Z,99.90
2022-12-09T05:07:11.083Z,99.90
2022-12-09T05:09:38.447Z,99.90
2022-12-09T05:12:06.407Z,99.90
2022-12-09T05:14:40.040Z,99.90
2022-12-09T05:17:07.548Z,99.90
2022-12-09T05:19:34.574Z,99.90
2022-12-09T05:22:09.101Z,99.90
2022-12-09T05:24:36.521Z,99.90
2022-12-09T05:27:03.859Z,99.90
2022-12-09T05:29:38.068Z,99.90
2022-12-09T05:32:06.428Z,99.90
2022-12-09T05:34:33.946Z,99.90
2022-12-09T05:37:08.291Z,99.90
2022-12-09T05:39:35.643Z,99.90
2022-12-09T05:42:03.148Z,99.90
2022-12-09T05:44:37.412Z,99.90
2022-12-09T05:47:05.295Z,99.90
2022-12-09T05:49:46.137Z,99.90
2022-12-09T05:52:14.534Z,99.90
2022-12-09T05:54:42.421Z,99.90
2022-12-09T05:57:16.397Z,85.30
2022-12-09T05:59:43.728Z,27.90
2022-12-09T06:02:11.116Z,23.30
2022-12-09T06:04:45.456Z,29.30
2022-12-09T06:07:13.246Z,1.00
2022-12-09T06:09:41.140Z,12.40
2022-12-09T06:12:15.243Z,55.40
2022-12-09T06:14:42.654Z,99.90
2022-12-09T06:17:09.750Z,90.90
2022-12-09T06:19:44.627Z,53.90
2022-12-09T06:22:12.167Z,1.00
2022-12-09T06:24:39.415Z,1.00
2022-12-09T06:27:13.462Z,1.00
2022-12-09T06:29:40.732Z,1.00
2022-12-09T06:32:08.598Z,1.00
2022-12-09T06:34:42.354Z,1.00
2022-12-09T06:37:09.863Z,1.00
2022-12-09T06:39:37.042Z,1.00
2022-12-09T06:42:16.198Z,1.00
2022-12-09T06:44:44.397Z,1.00
2022-12-09T06:47:11.901Z,1.00
2022-12-09T06:49:46.323Z,1.00
2022-12-09T06:52:20.215Z,14.90
2022-12-09T06:54:54.375Z,38.50
2022-12-09T06:57:21.766Z,99.90
2022-12-09T06:59:49.447Z,99.90
2022-12-09T07:02:23.807Z,99.90
2022-12-09T07:04:55.805Z,99.90
2022-12-09T07:07:30.457Z,99.90
2022-12-09T07:09:58.115Z,73.70
2022-12-09T07:12:26.063Z,1.80
2022-12-09T07:15:00.109Z,1.00
2022-12-09T07:17:28.041Z,1.00
2022-12-09T07:19:56.118Z,1.00
2022-12-09T07:22:31.936Z,1.00
2022-12-09T07:24:59.112Z,1.00
2022-12-09T07:27:26.265Z,1.00
2022-12-09T07:30:00.472Z,1.00
2022-12-09T07:32:28.270Z,1.00
2022-12-09T07:34:55.603Z,1.00
2022-12-09T07:37:29.024Z,1.00
2022-12-09T07:39:56.479Z,1.00
2022-12-09T07:42:24.613Z,1.00
2022-12-09T07:44:58.405Z,1.00
2022-12-09T07:47:25.626Z,1.00
2022-12-09T07:50:07.068Z,1.00
2022-12-09T07:52:35.035Z,1.00
2022-12-09T07:55:02.473Z,1.00
2022-12-09T07:57:38.469Z,1.00
2022-12-09T08:00:06.921Z,99.90
2022-12-09T08:02:34.247Z,99.90
2022-12-09T08:05:09.314Z,99.90
2022-12-09T08:07:43.700Z,99.90
2022-12-09T08:10:18.201Z,99.90
2022-12-09T08:12:45.687Z,99.90
2022-12-09T08:15:13.468Z,59.00
2022-12-09T08:17:47.173Z,1.00
2022-12-09T08:20:15.598Z,1.00
2022-12-09T08:22:43.470Z,1.00
2022-12-09T08:25:17.205Z,1.00
2022-12-09T08:27:45.026Z,59.00
2022-12-09T08:30:12.934Z,99.90
2022-12-09T08:32:47.164Z,99.90
2022-12-09T08:35:15.463Z,20.30
2022-12-09T08:37:43.857Z,1.00
2022-12-09T08:40:19.205Z,1.00
2022-12-09T08:42:46.376Z,99.90
2022-12-09T08:45:13.841Z,99.90
2022-12-09T08:47:48.374Z,99.90
2022-12-09T08:50:22.140Z,99.90
2022-12-09T08:53:02.010Z,1.00
2022-12-09T08:55:29.333Z,53.70
2022-12-09T08:57:58.054Z,99.90
2022-12-09T09:00:32.389Z,99.90
2022-12-09T09:03:00.182Z,99.90
2022-12-09T09:05:28.042Z,1.00
2022-12-09T09:08:02.545Z,99.90
2022-12-09T09:10:30.316Z,1.00
2022-12-09T09:12:57.789Z,1.00
2022-12-09T09:15:32.120Z,1.00
2022-12-09T09:17:59.789Z,1.00
2022-12-09T09:20:27.340Z,1.00
2022-12-09T09:23:03.251Z,1.00
2022-12-09T09:25:31.334Z,99.90
2022-12-09T09:27:58.548Z,99.90
2022-12-09T09:30:32.316Z,1.00
2022-12-09T09:33:00.080Z,1.00
2022-12-09T09:35:27.283Z,1.00
2022-12-09T09:38:02.021Z,1.00
2022-12-09T09:40:30.416Z,1.00
2022-12-09T09:42:58.963Z,99.90
2022-12-09T09:45:33.317Z,1.00
2022-12-09T09:48:10.341Z,1.00
2022-12-09T09:50:59.149Z,99.90
2022-12-09T09:53:32.968Z,1.00
2022-12-09T09:56:33.008Z,99.90
2022-12-09T09:59:21.449Z,1.00
2022-12-09T10:02:19.605Z,1.00
2022-12-09T10:05:17.904Z,1.00
2022-12-09T10:08:03.164Z,1.00
2022-12-09T10:10:47.472Z,1.00
2022-12-09T10:14:12.119Z,99.90
2022-12-09T10:17:08.573Z,99.90
2022-12-09T10:19:48.633Z,99.90
2022-12-09T10:22:24.783Z,99.90
2022-12-09T10:25:05.550Z,1.00
2022-12-09T10:28:08.028Z,99.90
2022-12-09T10:30:44.595Z,1.00
2022-12-09T10:33:21.131Z,1.00
2022-12-09T10:35:55.607Z,11.20
2022-12-09T10:38:24.942Z,99.90
2022-12-09T10:41:47.455Z,99.90
2022-12-09T10:44:21.941Z,13.90
2022-12-09T10:47:12.491Z,3.90
2022-12-09T10:49:49.343Z,99.90
2022-12-09T10:52:30.414Z,99.90
2022-12-09T10:54:58.835Z,99.90
2022-12-09T10:57:29.924Z,1.00
2022-12-09T11:00:31.048Z,1.00
2022-12-09T11:03:03.620Z,1.00
2022-12-09T11:05:41.321Z,45.10
2022-12-09T11:08:08.963Z,45.80
2022-12-09T11:10:38.303Z,1.00
2022-12-09T11:13:24.537Z,1.00
2022-12-09T11:15:54.560Z,99.90
2022-12-09T11:18:39.527Z,1.00
2022-12-09T11:21:27.450Z,1.30
2022-12-09T11:24:03.582Z,99.90
2022-12-09T11:26:39.307Z,99.90
2022-12-09T11:29:39.083Z,1.00
2022-12-09T11:32:14.496Z,99.90
2022-12-09T11:34:53.087Z,1.00
2022-12-09T11:37:21.032Z,1.00
2022-12-09T11:39:51.971Z,1.00
2022-12-09T11:42:30.017Z,99.90
2022-12-09T11:45:17.666Z,13.60
2022-12-09T11:50:52.217Z,1.00
2022-12-09T11:53:40.010Z,1.00
2022-12-09T11:56:29.672Z,1.00
2022-12-09T11:59:12.016Z,1.00
2022-12-09T12:02:01.789Z,71.80
2022-12-09T12:04:45.115Z,1.00
2022-12-09T12:07:38.536Z,1.00
2022-12-09T12:10:33.012Z,1.00
2022-12-09T12:13:30.889Z,1.00
2022-12-09T12:16:45.018Z,1.00
2022-12-09T12:19:25.595Z,1.00
2022-12-09T12:22:44.034Z,1.00
2022-12-09T12:25:46.186Z,1.00
2022-12-09T12:28:39.003Z,1.00
2022-12-09T12:31:30.896Z,1.00
2022-12-09T12:34:37.405Z,32.00
2022-12-09T12:37:39.662Z,29.40
2022-12-09T12:40:58.059Z,99.90
2022-12-09T12:44:03.342Z,46.00
2022-12-09T12:46:58.054Z,16.10
2022-12-09T12:50:00.215Z,1.00
2022-12-09T12:53:22.003Z,1.00
2022-12-09T12:56:07.748Z,1.00
2022-12-09T12:59:04.072Z,1.00
2022-12-09T13:02:42.242Z,35.70
2022-12-09T13:05:36.039Z,37.50
2022-12-09T13:08:19.605Z,1.00
2022-12-09T13:11:00.002Z,1.00
2022-12-09T13:14:01.875Z,1.00
2022-12-09T13:16:48.104Z,66.80
2022-12-09T13:19:34.448Z,99.90
2022-12-09T13:22:09.999Z,99.90
2022-12-09T13:24:42.645Z,99.90
2022-12-09T13:27:40.030Z,99.90
2022-12-09T13:30:36.230Z,99.90
2022-12-09T13:33:27.794Z,99.90
2022-12-09T13:36:45.698Z,99.90
2022-12-09T13:39:46.023Z,99.90
2022-12-09T13:42:47.408Z,99.90
2022-12-09T13:45:32.053Z,99.90
2022-12-09T13:48:17.312Z,99.90
2022-12-09T13:51:07.002Z,99.90
2022-12-09T13:53:45.813Z,99.90
2022-12-09T13:56:31.301Z,99.90
2022-12-09T13:59:33.339Z,99.90
2022-12-09T14:02:27.089Z,99.90
2022-12-09T14:05:22.011Z,99.90
2022-12-09T14:08:10.121Z,99.90
2022-12-09T14:10:46.438Z,99.90
2022-12-09T14:13:31.070Z,99.90
2022-12-09T14:16:34.814Z,99.90
2022-12-09T14:19:32.037Z,1.00
2022-12-09T14:22:19.190Z,1.00
2022-12-09T14:24:59.005Z,1.00
2022-12-09T14:27:29.442Z,1.00
2022-12-09T14:30:07.275Z,1.00
2022-12-09T14:32:50.962Z,1.00
2022-12-09T14:35:53.030Z,1.00
2022-12-09T14:39:23.594Z,1.00
2022-12-09T14:42:34.050Z,1.00
2022-12-09T14:45:37.775Z,1.00
2022-12-09T14:48:19.038Z,1.00
2022-12-09T14:51:21.694Z,1.00
2022-12-09T14:54:12.066Z,44.40
2022-12-09T14:56:39.253Z,1.00
2022-12-09T14:59:10.070Z,44.70
2022-12-09T15:02:04.102Z,67.20
2022-12-09T15:04:42.793Z,99.90
2022-12-09T15:07:32.034Z,99.90
2022-12-09T15:10:03.000Z,99.90
2022-12-09T15:12:44.078Z,99.90
2022-12-09T15:15:20.084Z,99.90
2022-12-09T15:18:15.175Z,99.90
2022-12-09T15:20:47.863Z,99.90
2022-12-09T15:23:44.123Z,99.90
2022-12-09T15:26:27.885Z,99.90
2022-12-09T15:29:04.390Z,99.90
2022-12-09T15:31:34.322Z,1.40
2022-12-09T15:34:26.668Z,1.00
2022-12-09T15:37:05.663Z,1.00
2022-12-09T15:40:00.074Z,1.00
2022-12-09T15:42:34.048Z,1.00
2022-12-09T15:45:19.131Z,1.00
2022-12-09T15:48:07.136Z,1.00
2022-12-09T15:51:04.068Z,1.00
2022-12-09T15:53:42.838Z,14.60
2022-12-09T15:56:39.102Z,69.30
2022-12-09T15:59:25.286Z,40.50
2022-12-09T16:02:04.119Z,99.90
2022-12-09T16:04:42.023Z,99.90
2022-12-09T16:07:21.101Z,99.90
2022-12-09T16:10:16.176Z,99.90
2022-12-09T16:12:51.111Z,99.90
2022-12-09T16:15:47.725Z,99.90
2022-12-09T16:18:56.039Z,1.00
2022-12-09T16:21:36.514Z,1.00
2022-12-09T16:24:20.043Z,1.00
2022-12-09T16:26:50.739Z,1.00
2022-12-09T16:29:44.050Z,1.00
2022-12-09T16:32:26.697Z,50.80
2022-12-09T16:35:26.456Z,99.90
2022-12-09T16:37:56.499Z,99.90
2022-12-09T16:40:33.082Z,99.90
2022-12-09T16:43:18.976Z,99.90
2022-12-09T16:46:09.148Z,99.90
2022-12-09T16:48:36.311Z,99.90
2022-12-09T16:51:28.179Z,99.90
2022-12-09T16:53:56.133Z,99.90
2022-12-09T16:56:27.891Z,1.00
2022-12-09T16:59:03.078Z,1.00
2022-12-09T17:01:41.529Z,1.00
2022-12-09T17:04:35.093Z,1.00
2022-12-09T17:07:02.029Z,1.00
2022-12-09T17:09:29.008Z,1.00
2022-12-09T17:12:02.063Z,1.00
2022-12-09T17:14:29.045Z,1.00
2022-12-09T17:16:56.001Z,1.00
2022-12-09T17:19:30.049Z,1.00
2022-12-09T17:21:57.919Z,1.00
2022-12-09T17:24:25.119Z,1.00
2022-12-09T17:26:59.376Z,1.00
2022-12-09T17:29:26.446Z,1.00
2022-12-09T17:31:53.518Z,1.00
2022-12-09T17:34:27.080Z,1.00
2022-12-09T17:36:55.288Z,1.00
2022-12-09T17:39:24.826Z,1.00
2022-12-09T17:41:58.368Z,1.00
2022-12-09T17:44:25.377Z,1.00
2022-12-09T17:46:52.602Z,1.00
2022-12-09T17:49:27.042Z,1.00
2022-12-09T17:52:00.699Z,1.00
2022-12-09T17:54:34.103Z,1.00
2022-12-09T17:57:01.123Z,1.00
2022-12-09T17:59:28.072Z,1.00
2022-12-09T18:02:01.098Z,1.00
2022-12-09T18:04:28.359Z,1.00
2022-12-09T18:06:55.303Z,1.00
2022-12-09T18:09:30.329Z,1.00
2022-12-09T18:11:57.257Z,1.00
2022-12-09T18:14:25.499Z,1.00
2022-12-09T18:16:59.141Z,1.00
2022-12-09T18:19:26.268Z,1.00
2022-12-09T18:21:55.627Z,1.00
2022-12-09T18:24:30.039Z,1.00
2022-12-09T18:26:58.398Z,1.00
2022-12-09T18:29:26.475Z,1.00
2022-12-09T18:32:04.058Z,1.00
2022-12-09T18:34:33.027Z,1.00
2022-12-09T18:37:00.108Z,1.00
2022-12-09T18:39:34.059Z,1.00
2022-12-09T18:42:01.028Z,1.00
2022-12-09T18:44:28.068Z,1.00
2022-12-09T18:47:02.066Z,1.00
2022-12-09T18:49:37.275Z,1.00
2022-12-09T18:52:17.189Z,1.00
2022-12-09T18:54:45.854Z,1.00
2022-12-09T18:57:12.793Z,1.00
2022-12-09T18:59:46.089Z,1.00
2022-12-09T19:02:14.008Z,1.00
2022-12-09T19:04:41.017Z,1.00
2022-12-09T19:07:15.066Z,1.00
2022-12-09T19:09:42.489Z,1.00
2022-12-09T19:12:46.013Z,1.00
2022-12-09T19:15:04.055Z,1.00
2022-12-09T19:17:32.681Z,1.00
2022-12-09T19:20:00.213Z,1.00
2022-12-09T19:22:34.125Z,1.00
2022-12-09T19:25:01.103Z,1.00
2022-12-09T19:27:28.092Z,1.40
2022-12-09T19:30:02.100Z,8.60
2022-12-09T19:32:52.590Z,16.90
2022-12-09T19:35:23.083Z,26.90
2022-12-09T19:37:50.153Z,40.80
2022-12-09T19:40:18.349Z,53.20
2022-12-09T19:42:52.086Z,58.30
2022-12-09T19:45:19.134Z,71.50
2022-12-09T19:47:46.593Z,79.50
2022-12-09T19:50:20.085Z,89.00
2022-12-09T19:52:47.242Z,97.30
2022-12-09T19:55:14.439Z,94.60
2022-12-09T19:57:48.106Z,89.40
2022-12-09T20:00:15.802Z,91.00
2022-12-09T20:02:42.823Z,93.50
2022-12-09T20:05:16.108Z,99.90
2022-12-09T20:07:43.284Z,99.90
2022-12-09T20:10:10.766Z,99.90
2022-12-09T20:12:45.045Z,99.90
2022-12-09T20:15:12.205Z,99.90
2022-12-09T20:17:39.206Z,99.90
2022-12-09T20:20:14.077Z,99.90
2022-12-09T20:22:41.012Z,99.90
2022-12-09T20:25:08.538Z,99.90
2022-12-09T20:27:42.072Z,99.90
2022-12-09T20:30:10.067Z,99.90
2022-12-09T20:32:37.106Z,99.90
2022-12-09T20:35:11.193Z,99.90
2022-12-09T20:37:38.130Z,99.90
2022-12-09T20:40:06.295Z,99.90
2022-12-09T20:42:40.797Z,99.90
2022-12-09T20:45:08.736Z,99.90
2022-12-09T20:47:35.770Z,99.90
2022-12-09T20:50:09.403Z,99.90
2022-12-09T20:52:43.152Z,99.90
2022-12-09T20:55:17.168Z,99.90
2022-12-09T20:57:44.256Z,99.90
2022-12-09T21:00:12.701Z,99.90
2022-12-09T21:02:47.107Z,99.90
2022-12-09T21:05:14.129Z,99.90
2022-12-09T21:07:41.217Z,99.90
2022-12-09T21:10:15.124Z,99.90
2022-12-09T21:12:42.046Z,99.90
2022-12-09T21:15:10.616Z,99.90
2022-12-09T21:17:44.085Z,99.90
2022-12-09T21:20:11.382Z,99.90
2022-12-09T21:22:39.093Z,99.90
2022-12-09T21:25:13.087Z,99.90
2022-12-09T21:27:40.370Z,99.90
2022-12-09T21:30:09.935Z,99.90
2022-12-09T21:32:46.266Z,99.90
2022-12-09T21:35:13.551Z,99.90
2022-12-09T21:37:40.906Z,99.90
2022-12-09T21:40:15.115Z,99.90
2022-12-09T21:42:42.127Z,99.90
2022-12-09T21:45:09.794Z,99.90
2022-12-09T21:47:43.116Z,99.90
2022-12-09T21:50:30.048Z,99.90
2022-12-09T21:53:05.073Z,99.90
2022-12-09T21:55:34.253Z,99.90
2022-12-09T21:58:01.232Z,99.90
2022-12-09T22:00:35.077Z,99.90
2022-12-09T22:03:02.088Z,99.90
2022-12-09T22:05:29.052Z,99.90
2022-12-09T22:08:03.133Z,99.90
2022-12-09T22:10:30.222Z,99.90
2022-12-09T22:12:57.299Z,99.90
2022-12-09T22:15:31.288Z,99.90
2022-12-09T22:17:58.463Z,99.90
2022-12-09T22:23:19.107Z,99.90
2022-12-09T22:25:46.080Z,99.90
2022-12-09T22:28:13.073Z,99.90
2022-12-09T22:30:46.091Z,99.90
2022-12-09T22:33:13.086Z,99.90
2022-12-09T22:35:40.062Z,99.90
2022-12-09T22:38:14.860Z,99.90
2022-12-09T22:40:42.334Z,99.90
2022-12-09T22:43:09.450Z,99.90
2022-12-09T22:45:43.096Z,99.90
2022-12-09T22:48:10.103Z,99.90
2022-12-09T22:50:57.127Z,99.90
2022-12-09T22:53:24.085Z,99.90
2022-12-09T22:55:51.789Z,99.90
2022-12-09T22:58:25.143Z,99.90
2022-12-09T23:00:52.926Z,99.90
2022-12-09T23:03:20.353Z,99.90
2022-12-09T23:05:54.391Z,99.90
2022-12-09T23:08:22.599Z,99.90
2022-12-09T23:10:50.684Z,99.90
2022-12-09T23:13:25.106Z,99.90
2022-12-09T23:15:52.172Z,99.90
2022-12-09T23:18:19.214Z,99.90
2022-12-09T23:20:53.094Z,99.90
2022-12-09T23:23:20.037Z,99.90
2022-12-09T23:25:47.122Z,99.90
2022-12-09T23:28:21.122Z,99.90
2022-12-09T23:30:48.141Z,99.90
2022-12-09T23:33:15.222Z,99.90
2022-12-09T23:35:49.129Z,99.90
2022-12-09T23:38:16.169Z,99.90
2022-12-09T23:41:00.174Z,99.90
2022-12-09T23:43:30.601Z,99.90
2022-12-09T23:46:15.318Z,99.90
2022-12-09T23:48:47.895Z,99.90
2022-12-09T23:51:36.115Z,99.90
2022-12-09T23:54:14.806Z,99.90
2022-12-09T23:56:51.162Z,99.90
2022-12-09T23:59:21.929Z,99.90
